createdAt,value
2023-03-12T00:00:12.658Z,846.02
2023-03-12T00:01:12.627Z,846.03
2023-03-12T00:02:12.690Z,846.02
2023-03-12T00:03:12.628Z,846.05
2023-03-12T00:04:12.598Z,846.08
2023-03-12T00:05:12.628Z,846.00
2023-03-12T00:06:12.569Z,846.01
2023-03-12T00:07:12.574Z,846.00
2023-03-12T00:08:12.549Z,846.01
2023-03-12T00:09:12.539Z,846.00
2023-03-12T00:10:12.525Z,845.98
2023-03-12T00:11:12.576Z,846.00
2023-03-12T00:12:12.526Z,846.00
2023-03-12T00:13:12.500Z,846.09
2023-03-12T00:14:12.485Z,846.08
2023-03-12T00:15:12.474Z,846.06
2023-03-12T00:16:12.586Z,846.11
2023-03-12T00:17:12.481Z,846.07
2023-03-12T00:18:12.452Z,846.12
2023-03-12T00:19:12.458Z,846.10
2023-03-12T00:20:12.434Z,846.11
2023-03-12T00:21:12.410Z,846.13
2023-03-12T00:22:12.396Z,846.07
2023-03-12T00:23:12.433Z,846.08
2023-03-12T00:24:12.390Z,846.10
2023-03-12T00:25:12.391Z,846.18
2023-03-12T00:26:12.359Z,846.25
2023-03-12T00:27:12.357Z,846.21
2023-03-12T00:28:12.332Z,846.19
2023-03-12T00:29:12.357Z,846.16
2023-03-12T00:30:12.311Z,846.17
2023-03-12T00:31:12.399Z,846.17
2023-03-12T00:32:12.286Z,846.12
2023-03-12T00:33:12.285Z,846.18
2023-03-12T00:34:12.270Z,846.11
2023-03-12T00:35:12.291Z,846.15
2023-03-12T00:36:12.243Z,846.17
2023-03-12T00:37:12.266Z,846.13
2023-03-12T00:38:12.222Z,846.15
2023-03-12T00:39:12.217Z,846.18
2023-03-12T00:40:12.208Z,846.21
2023-03-12T00:41:12.246Z,846.23
2023-03-12T00:42:12.191Z,846.23
2023-03-12T00:43:12.181Z,846.28
2023-03-12T00:44:12.159Z,846.29
2023-03-12T00:45:12.157Z,846.21
2023-03-12T00:46:12.266Z,846.24
2023-03-12T00:47:12.194Z,846.27
2023-03-12T00:48:12.126Z,846.30
2023-03-12T00:49:12.108Z,846.30
2023-03-12T00:50:12.100Z,846.32
2023-03-12T00:51:12.108Z,846.29
2023-03-12T00:52:12.070Z,846.29
2023-03-12T00:53:12.129Z,846.31
2023-03-12T00:54:12.052Z,846.32
2023-03-12T00:55:12.042Z,846.34
2023-03-12T00:56:12.029Z,846.32
2023-03-12T00:57:12.021Z,846.28
2023-03-12T00:58:12.009Z,846.28
2023-03-12T00:59:12.064Z,846.28
2023-03-12T01:00:11.984Z,846.30
2023-03-12T01:01:12.075Z,846.33
2023-03-12T01:02:11.965Z,846.34
2023-03-12T01:03:11.965Z,846.35
2023-03-12T01:04:12.052Z,846.33
2023-03-12T01:05:12.016Z,846.31
2023-03-12T01:06:11.922Z,846.32
2023-03-12T01:07:11.945Z,846.32
2023-03-12T01:08:11.905Z,846.31
2023-03-12T01:09:11.895Z,846.30
2023-03-12T01:10:11.891Z,846.38
2023-03-12T01:11:11.946Z,846.33
2023-03-12T01:12:11.859Z,846.38
2023-03-12T01:13:11.853Z,846.40
2023-03-12T01:14:11.840Z,846.33
2023-03-12T01:15:11.832Z,846.33
2023-03-12T01:16:11.857Z,846.36
2023-03-12T01:17:11.891Z,846.40
2023-03-12T01:18:11.813Z,846.39
2023-03-12T01:19:11.791Z,846.42
2023-03-12T01:20:11.780Z,846.39
2023-03-12T01:21:11.784Z,846.39
2023-03-12T01:22:11.765Z,846.43
2023-03-12T01:23:11.833Z,846.44
2023-03-12T01:24:11.738Z,846.46
2023-03-12T01:25:11.746Z,846.43
2023-03-12T01:26:11.712Z,846.47
2023-03-12T01:27:11.704Z,846.45
2023-03-12T01:28:11.696Z,846.51
2023-03-12T01:29:11.722Z,846.44
2023-03-12T01:30:11.670Z,846.43
2023-03-12T01:31:11.684Z,846.45
2023-03-12T01:32:11.651Z,846.47
2023-03-12T01:33:11.649Z,846.47
2023-03-12T01:34:11.628Z,846.40
2023-03-12T01:35:11.749Z,846.46
2023-03-12T01:36:11.668Z,846.42
2023-03-12T01:37:11.621Z,846.38
2023-03-12T01:38:11.585Z,846.42
2023-03-12T01:39:11.616Z,846.44
2023-03-12T01:40:11.561Z,846.39
2023-03-12T01:41:11.610Z,846.37
2023-03-12T01:42:11.540Z,846.38
2023-03-12T01:43:11.548Z,846.42
2023-03-12T01:44:11.532Z,846.44
2023-03-12T01:45:11.511Z,846.41
2023-03-12T01:46:11.528Z,846.43
2023-03-12T01:47:11.542Z,846.47
2023-03-12T01:48:11.477Z,846.41
2023-03-12T01:49:11.516Z,846.44
2023-03-12T01:50:11.458Z,846.42
2023-03-12T01:51:11.461Z,846.45
2023-03-12T01:52:11.439Z,846.46
2023-03-12T01:53:11.461Z,846.49
2023-03-12T01:54:11.424Z,846.45
2023-03-12T01:55:11.454Z,846.45
2023-03-12T01:56:11.401Z,846.50
2023-03-12T01:57:11.379Z,846.51
2023-03-12T01:58:11.372Z,846.54
2023-03-12T01:59:11.407Z,846.57
2023-03-12T02:00:11.354Z,846.60
2023-03-12T02:01:11.399Z,846.61
2023-03-12T02:02:11.329Z,846.58
2023-03-12T02:03:11.316Z,846.65
2023-03-12T02:04:11.348Z,846.63
2023-03-12T02:05:11.358Z,846.65
2023-03-12T02:06:11.300Z,846.64
2023-03-12T02:07:11.279Z,846.61
2023-03-12T02:08:11.274Z,846.68
2023-03-12T02:09:11.252Z,846.66
2023-03-12T02:10:11.246Z,846.70
2023-03-12T02:11:11.290Z,846.70
2023-03-12T02:12:11.230Z,846.68
2023-03-12T02:13:11.219Z,846.71
2023-03-12T02:14:11.203Z,846.71
2023-03-12T02:15:11.202Z,846.74
2023-03-12T02:16:11.187Z,846.79
2023-03-12T02:17:11.223Z,846.72
2023-03-12T02:18:11.160Z,846.64
2023-03-12T02:19:11.147Z,846.66
2023-03-12T02:20:11.139Z,846.68
2023-03-12T02:21:11.138Z,846.77
2023-03-12T02:22:11.120Z,846.77
2023-03-12T02:23:11.149Z,846.77
2023-03-12T02:24:11.099Z,846.70
2023-03-12T02:25:11.112Z,846.76
2023-03-12T02:26:11.112Z,846.72
2023-03-12T02:27:11.084Z,846.67
2023-03-12T02:28:11.066Z,846.70
2023-03-12T02:29:11.089Z,846.70
2023-03-12T02:30:11.037Z,846.71
2023-03-12T02:31:11.035Z,846.77
2023-03-12T02:32:11.014Z,846.82
2023-03-12T02:33:11.014Z,846.79
2023-03-12T02:34:11.008Z,846.76
2023-03-12T02:35:11.030Z,846.75
2023-03-12T02:36:11.006Z,846.72
2023-03-12T02:37:10.970Z,846.75
2023-03-12T02:38:10.953Z,846.73
2023-03-12T02:39:10.940Z,846.74
2023-03-12T02:40:10.934Z,846.83
2023-03-12T02:41:10.981Z,846.82
2023-03-12T02:42:10.923Z,846.80
2023-03-12T02:43:10.920Z,846.76
2023-03-12T02:44:10.892Z,846.81
2023-03-12T02:45:10.876Z,846.83
2023-03-12T02:46:10.949Z,846.84
2023-03-12T02:47:10.909Z,846.86
2023-03-12T02:48:10.845Z,846.86
2023-03-12T02:49:10.834Z,846.86
2023-03-12T02:50:10.842Z,846.84
2023-03-12T02:51:10.817Z,846.91
2023-03-12T02:52:10.807Z,846.90
2023-03-12T02:53:10.844Z,846.96
2023-03-12T02:54:10.784Z,846.94
2023-03-12T02:55:10.770Z,846.94
2023-03-12T02:56:10.764Z,846.90
2023-03-12T02:57:10.753Z,846.88
2023-03-12T02:58:10.754Z,846.86
2023-03-12T02:59:10.768Z,846.91
2023-03-12T03:00:10.721Z,846.88
2023-03-12T03:01:10.734Z,846.83
2023-03-12T03:02:10.713Z,846.88
2023-03-12T03:03:10.724Z,846.91
2023-03-12T03:04:10.735Z,846.94
2023-03-12T03:05:10.718Z,846.94
2023-03-12T03:06:10.661Z,846.98
2023-03-12T03:07:10.645Z,846.96
2023-03-12T03:08:10.636Z,847.01
2023-03-12T03:09:10.638Z,847.05
2023-03-12T03:10:10.617Z,847.10
2023-03-12T03:11:10.666Z,847.16
2023-03-12T03:12:10.606Z,847.11
2023-03-12T03:13:10.581Z,847.16
2023-03-12T03:14:10.596Z,847.14
2023-03-12T03:15:10.581Z,847.09
2023-03-12T03:16:10.562Z,847.16
2023-03-12T03:17:10.599Z,847.18
2023-03-12T03:18:10.544Z,847.19
2023-03-12T03:19:10.541Z,847.20
2023-03-12T03:20:10.517Z,847.17
2023-03-12T03:21:10.503Z,847.17
2023-03-12T03:22:10.496Z,847.22
2023-03-12T03:23:10.524Z,847.21
2023-03-12T03:24:10.472Z,847.20
2023-03-12T03:25:10.476Z,847.23
2023-03-12T03:26:10.460Z,847.19
2023-03-12T03:27:10.437Z,847.21
2023-03-12T03:28:10.431Z,847.21
2023-03-12T03:29:10.483Z,847.18
2023-03-12T03:30:10.409Z,847.21
2023-03-12T03:31:10.455Z,847.27
2023-03-12T03:32:10.392Z,847.29
2023-03-12T03:33:10.374Z,847.27
2023-03-12T03:34:10.370Z,847.27
2023-03-12T03:35:10.418Z,847.31
2023-03-12T03:36:10.344Z,847.27
2023-03-12T03:37:10.332Z,847.31
2023-03-12T03:38:10.320Z,847.34
2023-03-12T03:39:10.310Z,847.33
2023-03-12T03:40:10.300Z,847.35
2023-03-12T03:41:10.350Z,847.33
2023-03-12T03:42:10.279Z,847.39
2023-03-12T03:43:10.269Z,847.32
2023-03-12T03:44:10.264Z,847.36
2023-03-12T03:45:10.251Z,847.38
2023-03-12T03:46:10.256Z,847.42
2023-03-12T03:47:10.310Z,847.45
2023-03-12T03:48:10.217Z,847.45
2023-03-12T03:49:10.207Z,847.42
2023-03-12T03:50:10.212Z,847.47
2023-03-12T03:51:10.187Z,847.44
2023-03-12T03:52:10.174Z,847.45
2023-03-12T03:53:10.231Z,847.43
2023-03-12T03:54:10.170Z,847.36
2023-03-12T03:55:10.158Z,847.39
2023-03-12T03:56:10.132Z,847.38
2023-03-12T03:57:10.118Z,847.41
2023-03-12T03:58:10.109Z,847.39
2023-03-12T03:59:10.184Z,847.37
2023-03-12T04:00:10.119Z,847.43
2023-03-12T04:01:10.080Z,847.41
2023-03-12T04:02:10.073Z,847.37
2023-03-12T04:03:10.138Z,847.38
2023-03-12T04:04:10.046Z,847.40
2023-03-12T04:05:10.076Z,847.41
2023-03-12T04:06:10.028Z,847.38
2023-03-12T04:07:10.017Z,847.41
2023-03-12T04:08:10.026Z,847.34
2023-03-12T04:09:10.031Z,847.33
2023-03-12T04:10:09.988Z,847.36
2023-03-12T04:11:10.040Z,847.37
2023-03-12T04:12:09.962Z,847.42
2023-03-12T04:13:09.950Z,847.43
2023-03-12T04:14:09.943Z,847.44
2023-03-12T04:15:09.938Z,847.41
2023-03-12T04:16:10.022Z,847.40
2023-03-12T04:17:09.952Z,847.42
2023-03-12T04:18:09.990Z,847.50
2023-03-12T04:19:09.914Z,847.48
2023-03-12T04:20:09.882Z,847.47
2023-03-12T04:21:09.886Z,847.47
2023-03-12T04:22:09.858Z,847.44
2023-03-12T04:23:09.888Z,847.44
2023-03-12T04:24:09.844Z,847.46
2023-03-12T04:25:09.832Z,847.48
2023-03-12T04:26:09.814Z,847.50
2023-03-12T04:27:09.807Z,847.53
2023-03-12T04:28:09.805Z,847.51
2023-03-12T04:29:09.821Z,847.62
2023-03-12T04:30:09.775Z,847.59
2023-03-12T04:31:09.814Z,847.62
2023-03-12T04:32:09.755Z,847.53
2023-03-12T04:33:09.740Z,847.59
2023-03-12T04:34:09.747Z,847.66
2023-03-12T04:35:09.797Z,847.65
2023-03-12T04:36:09.771Z,847.66
2023-03-12T04:37:09.701Z,847.67
2023-03-12T04:38:09.708Z,847.64
2023-03-12T04:39:09.684Z,847.64
2023-03-12T04:40:09.676Z,847.57
2023-03-12T04:41:09.700Z,847.65
2023-03-12T04:42:09.650Z,847.62
2023-03-12T04:43:09.643Z,847.65
2023-03-12T04:44:12.569Z,847.65
2023-03-12T04:45:09.615Z,847.63
2023-03-12T04:46:09.656Z,847.59
2023-03-12T04:47:09.645Z,847.63
2023-03-12T04:48:09.590Z,847.65
2023-03-12T04:49:09.579Z,847.68
2023-03-12T04:50:09.587Z,847.66
2023-03-12T04:51:09.577Z,847.67
2023-03-12T04:52:09.549Z,847.66
2023-03-12T04:53:09.673Z,847.63
2023-03-12T04:54:09.549Z,847.65
2023-03-12T04:55:09.518Z,847.66
2023-03-12T04:56:09.508Z,847.62
2023-03-12T04:57:09.498Z,847.68
2023-03-12T04:58:09.490Z,847.75
2023-03-12T04:59:09.527Z,847.73
2023-03-12T05:00:09.479Z,847.81
2023-03-12T05:01:09.458Z,847.81
2023-03-12T05:02:09.444Z,847.80
2023-03-12T05:03:09.531Z,847.82
2023-03-12T05:04:09.571Z,847.81
2023-03-12T05:05:09.456Z,847.85
2023-03-12T05:06:09.416Z,847.84
2023-03-12T05:07:09.414Z,847.84
2023-03-12T05:08:09.382Z,847.86
2023-03-12T05:09:09.367Z,847.84
2023-03-12T05:10:09.359Z,847.88
2023-03-12T05:11:09.408Z,847.88
2023-03-12T05:12:09.340Z,847.91
2023-03-12T05:13:09.330Z,847.90
2023-03-12T05:14:09.317Z,847.83
2023-03-12T05:15:09.306Z,847.85
2023-03-12T05:16:09.337Z,847.90
2023-03-12T05:17:09.343Z,847.88
2023-03-12T05:18:09.276Z,847.87
2023-03-12T05:19:09.260Z,847.89
2023-03-12T05:20:09.258Z,847.84
2023-03-12T05:21:09.236Z,847.89
2023-03-12T05:22:09.231Z,847.86
2023-03-12T05:23:09.292Z,847.88
2023-03-12T05:24:09.212Z,847.85
2023-03-12T05:25:09.197Z,847.88
2023-03-12T05:26:09.190Z,847.87
2023-03-12T05:27:09.174Z,847.84
2023-03-12T05:28:09.169Z,847.82
2023-03-12T05:29:09.220Z,847.89
2023-03-12T05:30:09.153Z,847.88
2023-03-12T05:31:09.190Z,847.86
2023-03-12T05:32:09.128Z,847.87
2023-03-12T05:33:09.117Z,847.90
2023-03-12T05:34:09.105Z,847.91
2023-03-12T05:35:09.144Z,847.90
2023-03-12T05:36:09.107Z,847.94
2023-03-12T05:37:09.067Z,847.99
2023-03-12T05:38:09.069Z,848.03
2023-03-12T05:39:09.089Z,848.06
2023-03-12T05:40:09.062Z,848.08
2023-03-12T05:41:09.073Z,848.07
2023-03-12T05:42:09.018Z,848.07
2023-03-12T05:43:09.008Z,848.11
2023-03-12T05:44:09.000Z,848.15
2023-03-12T05:45:08.986Z,848.16
2023-03-12T05:46:09.100Z,848.16
2023-03-12T05:47:09.031Z,848.15
2023-03-12T05:48:08.955Z,848.17
2023-03-12T05:49:08.941Z,848.19
2023-03-12T05:50:08.930Z,848.23
2023-03-12T05:51:08.929Z,848.24
2023-03-12T05:52:08.919Z,848.26
2023-03-12T05:53:08.950Z,848.29
2023-03-12T05:54:08.895Z,848.32
2023-03-12T05:55:08.905Z,848.27
2023-03-12T05:56:08.928Z,848.29
2023-03-12T05:57:08.849Z,848.27
2023-03-12T05:58:08.842Z,848.30
2023-03-12T05:59:08.884Z,848.35
2023-03-12T06:00:08.820Z,848.35
2023-03-12T06:01:08.808Z,848.37
2023-03-12T06:02:08.852Z,848.36
2023-03-12T06:03:08.856Z,848.37
2023-03-12T06:04:08.821Z,848.33
2023-03-12T06:05:08.763Z,848.33
2023-03-12T06:06:08.756Z,848.37
2023-03-12T06:07:08.763Z,848.34
2023-03-12T06:08:08.750Z,848.32
2023-03-12T06:09:08.724Z,848.33
2023-03-12T06:10:08.769Z,848.31
2023-03-12T06:11:08.723Z,848.35
2023-03-12T06:12:08.692Z,848.36
2023-03-12T06:13:08.734Z,848.38
2023-03-12T06:14:08.668Z,848.40
2023-03-12T06:15:08.662Z,848.35
2023-03-12T06:16:08.693Z,848.36
2023-03-12T06:17:08.642Z,848.38
2023-03-12T06:18:08.630Z,848.39
2023-03-12T06:19:08.635Z,848.39
2023-03-12T06:20:08.603Z,848.42
2023-03-12T06:21:08.598Z,848.41
2023-03-12T06:22:08.626Z,848.41
2023-03-12T06:23:08.573Z,848.39
2023-03-12T06:24:08.560Z,848.33
2023-03-12T06:25:08.591Z,848.32
2023-03-12T06:26:08.548Z,848.21
2023-03-12T06:27:08.561Z,848.15
2023-03-12T06:28:08.568Z,848.11
2023-03-12T06:29:08.511Z,848.18
2023-03-12T06:30:08.505Z,848.12
2023-03-12T06:31:08.562Z,848.15
2023-03-12T06:32:08.480Z,848.10
2023-03-12T06:33:08.467Z,848.09
2023-03-12T06:34:08.509Z,848.16
2023-03-12T06:35:08.463Z,848.20
2023-03-12T06:36:08.456Z,848.17
2023-03-12T06:37:08.435Z,848.16
2023-03-12T06:38:08.416Z,848.16
2023-03-12T06:39:08.406Z,848.15
2023-03-12T06:40:08.438Z,848.16
2023-03-12T06:41:08.386Z,848.17
2023-03-12T06:42:08.386Z,848.14
2023-03-12T06:43:08.384Z,848.14
2023-03-12T06:44:08.352Z,848.18
2023-03-12T06:45:08.358Z,848.21
2023-03-12T06:46:08.413Z,848.25
2023-03-12T06:47:08.324Z,848.27
2023-03-12T06:48:08.312Z,848.28
2023-03-12T06:49:08.318Z,848.27
2023-03-12T06:50:08.288Z,848.26
2023-03-12T06:51:08.275Z,848.30
2023-03-12T06:52:08.302Z,848.35
2023-03-12T06:53:08.261Z,848.41
2023-03-12T06:54:08.253Z,848.38
2023-03-12T06:55:08.247Z,848.37
2023-03-12T06:56:08.229Z,848.33
2023-03-12T06:57:08.213Z,848.30
2023-03-12T06:58:08.226Z,848.30
2023-03-12T06:59:08.241Z,848.31
2023-03-12T07:00:08.248Z,848.36
2023-03-12T07:01:08.189Z,848.39
2023-03-12T07:02:08.211Z,848.41
2023-03-12T07:03:08.164Z,848.41
2023-03-12T07:04:08.186Z,848.41
2023-03-12T07:05:08.209Z,848.40
2023-03-12T07:06:08.122Z,848.40
2023-03-12T07:07:08.130Z,848.42
2023-03-12T07:08:08.102Z,848.42
2023-03-12T07:09:08.099Z,848.40
2023-03-12T07:10:08.128Z,848.32
2023-03-12T07:11:08.071Z,848.31
2023-03-12T07:12:08.060Z,848.33
2023-03-12T07:13:08.087Z,848.28
2023-03-12T07:14:08.034Z,848.31
2023-03-12T07:15:08.045Z,848.29
2023-03-12T07:16:08.140Z,848.27
2023-03-12T07:17:08.003Z,848.22
2023-03-12T07:18:08.009Z,848.19
2023-03-12T07:19:08.001Z,848.14
2023-03-12T07:20:07.970Z,848.05
2023-03-12T07:21:08.009Z,848.02
2023-03-12T07:22:07.981Z,848.06
2023-03-12T07:23:07.948Z,848.07
2023-03-12T07:24:07.955Z,848.11
2023-03-12T07:25:07.927Z,848.09
2023-03-12T07:26:07.923Z,848.12
2023-03-12T07:27:07.901Z,848.15
2023-03-12T07:28:07.917Z,848.19
2023-03-12T07:29:07.881Z,848.19
2023-03-12T07:30:07.893Z,848.16
2023-03-12T07:31:07.991Z,848.20
2023-03-12T07:32:07.849Z,848.23
2023-03-12T07:33:08.006Z,848.27
2023-03-12T07:34:08.008Z,848.21
2023-03-12T07:35:07.810Z,848.26
2023-03-12T07:36:07.935Z,848.13
2023-03-12T07:37:07.789Z,848.15
2023-03-12T07:38:07.856Z,848.18
2023-03-12T07:39:07.764Z,848.20
2023-03-12T07:40:07.844Z,848.22
2023-03-12T07:41:07.828Z,848.18
2023-03-12T07:42:07.815Z,848.15
2023-03-12T07:43:07.719Z,848.15
2023-03-12T07:44:07.793Z,848.13
2023-03-12T07:45:07.723Z,848.13
2023-03-12T07:46:07.735Z,848.17
2023-03-12T07:47:22.861Z,848.13
2023-03-12T07:48:08.737Z,848.12
2023-03-12T07:49:07.654Z,848.14
2023-03-12T07:50:07.756Z,848.09
2023-03-12T07:51:07.627Z,848.11
2023-03-12T07:52:07.705Z,848.09
2023-03-12T07:53:07.611Z,848.15
2023-03-12T07:54:07.594Z,848.11
2023-03-12T07:55:07.690Z,848.09
2023-03-12T07:56:07.754Z,848.11
2023-03-12T07:57:07.725Z,848.11
2023-03-12T07:58:07.713Z,848.14
2023-03-12T07:59:07.701Z,848.10
2023-03-12T08:00:07.606Z,848.12
2023-03-12T08:01:07.576Z,848.11
2023-03-12T08:02:07.633Z,848.15
2023-03-12T08:03:07.919Z,848.08
2023-03-12T08:04:07.613Z,848.14
2023-03-12T08:05:07.543Z,848.12
2023-03-12T08:06:07.542Z,848.17
2023-03-12T08:07:09.306Z,848.17
2023-03-12T08:08:07.441Z,848.15
2023-03-12T08:09:07.432Z,848.15
2023-03-12T08:10:07.527Z,848.14
2023-03-12T08:11:07.423Z,848.12
2023-03-12T08:12:07.429Z,848.12
2023-03-12T08:13:07.435Z,848.11
2023-03-12T08:14:07.457Z,848.09
2023-03-12T08:15:07.391Z,848.11
2023-03-12T08:16:09.422Z,848.18
2023-03-12T08:17:07.355Z,848.21
2023-03-12T08:18:07.339Z,848.28
2023-03-12T08:19:07.376Z,848.28
2023-03-12T08:20:07.309Z,848.32
2023-03-12T08:21:07.300Z,848.35
2023-03-12T08:22:07.315Z,848.37
2023-03-12T08:23:07.280Z,848.42
2023-03-12T08:24:07.266Z,848.42
2023-03-12T08:25:07.276Z,848.40
2023-03-12T08:26:07.250Z,848.48
2023-03-12T08:27:07.236Z,848.43
2023-03-12T08:28:07.246Z,848.46
2023-03-12T08:29:07.212Z,848.43
2023-03-12T08:30:07.217Z,848.45
2023-03-12T08:31:07.190Z,848.44
2023-03-12T08:32:07.245Z,848.45
2023-03-12T08:33:07.200Z,848.50
2023-03-12T08:34:07.178Z,848.54
2023-03-12T08:35:07.169Z,848.56
2023-03-12T08:36:07.146Z,848.60
2023-03-12T08:37:07.136Z,848.64
2023-03-12T08:38:07.112Z,848.69
2023-03-12T08:39:07.105Z,848.84
2023-03-12T08:40:07.175Z,848.91
2023-03-12T08:41:07.081Z,848.93
2023-03-12T08:42:07.070Z,848.97
2023-03-12T08:43:07.059Z,848.99
2023-03-12T08:44:07.047Z,849.06
2023-03-12T08:45:07.037Z,849.05
2023-03-12T08:46:07.113Z,849.06
2023-03-12T08:47:07.020Z,849.11
2023-03-12T08:48:07.004Z,849.15
2023-03-12T08:49:07.003Z,849.22
2023-03-12T08:50:06.982Z,849.17
2023-03-12T08:51:07.005Z,849.24
2023-03-12T08:52:07.019Z,849.23
2023-03-12T08:53:06.953Z,849.21
2023-03-12T08:54:06.945Z,849.21
2023-03-12T08:55:06.933Z,849.21
2023-03-12T08:56:06.922Z,849.20
2023-03-12T08:57:06.926Z,849.22
2023-03-12T08:58:06.934Z,849.27
2023-03-12T08:59:06.894Z,849.32
2023-03-12T09:00:06.877Z,849.38
2023-03-12T09:01:06.871Z,849.45
2023-03-12T09:02:06.869Z,849.47
2023-03-12T09:03:06.900Z,849.51
2023-03-12T09:04:06.894Z,849.53
2023-03-12T09:05:06.829Z,849.51
2023-03-12T09:06:06.810Z,849.52
2023-03-12T09:07:06.845Z,849.51
2023-03-12T09:08:06.802Z,849.47
2023-03-12T09:09:06.781Z,849.44
2023-03-12T09:10:06.805Z,849.48
2023-03-12T09:11:06.765Z,849.47
2023-03-12T09:12:06.752Z,849.51
2023-03-12T09:13:06.739Z,849.47
2023-03-12T09:15:07.773Z,849.39
2023-03-12T09:16:06.732Z,849.36
2023-03-12T09:17:06.712Z,849.35
2023-03-12T09:18:06.694Z,849.46
2023-03-12T09:19:06.688Z,849.47
2023-03-12T09:20:06.664Z,849.43
2023-03-12T09:21:06.650Z,849.41
2023-03-12T09:22:06.678Z,849.30
2023-03-12T09:23:07.760Z,849.27
2023-03-12T09:24:06.648Z,849.29
2023-03-12T09:25:06.618Z,849.27
2023-03-12T09:26:06.591Z,849.28
2023-03-12T09:27:06.581Z,849.30
2023-03-12T09:28:06.611Z,849.29
2023-03-12T09:29:06.570Z,849.33
2023-03-12T09:30:06.551Z,849.29
2023-03-12T09:31:06.590Z,849.24
2023-03-12T09:32:06.525Z,849.27
2023-03-12T09:33:06.510Z,849.31
2023-03-12T09:34:06.530Z,849.32
2023-03-12T09:35:06.493Z,849.33
2023-03-12T09:36:06.527Z,849.32
2023-03-12T09:37:06.478Z,849.31
2023-03-12T09:38:06.458Z,849.31
2023-03-12T09:39:06.473Z,849.36
2023-03-12T09:40:06.456Z,849.36
2023-03-12T09:41:06.445Z,849.44
2023-03-12T09:42:06.415Z,849.49
2023-03-12T09:43:06.408Z,849.53
2023-03-12T09:44:06.403Z,849.63
2023-03-12T09:45:06.395Z,849.67
2023-03-12T09:46:06.441Z,849.70
2023-03-12T09:47:06.371Z,849.70
2023-03-12T09:48:06.348Z,849.73
2023-03-12T09:49:06.336Z,849.65
2023-03-12T09:50:06.337Z,849.61
2023-03-12T09:51:06.312Z,849.56
2023-03-12T09:52:06.331Z,849.60
2023-03-12T09:53:06.330Z,849.56
2023-03-12T09:54:06.283Z,849.64
2023-03-12T09:55:06.293Z,849.67
2023-03-12T09:56:06.261Z,849.67
2023-03-12T09:57:06.248Z,849.68
2023-03-12T09:58:06.286Z,849.60
2023-03-12T09:59:06.241Z,849.62
2023-03-12T10:00:06.219Z,849.56
2023-03-12T10:01:06.208Z,849.56
2023-03-12T10:02:06.209Z,849.56
2023-03-12T10:03:06.272Z,849.56
2023-03-12T10:04:06.227Z,849.54
2023-03-12T10:05:06.223Z,849.57
2023-03-12T10:06:06.200Z,849.60
2023-03-12T10:07:06.141Z,849.55
2023-03-12T10:08:23.066Z,849.53
2023-03-12T10:09:07.128Z,849.51
2023-03-12T10:10:06.143Z,849.47
2023-03-12T10:11:06.116Z,849.51
2023-03-12T10:12:06.092Z,849.54
2023-03-12T10:13:06.082Z,849.54
2023-03-12T10:14:06.073Z,849.56
2023-03-12T10:15:06.065Z,849.54
2023-03-12T10:16:06.101Z,849.54
2023-03-12T10:17:06.039Z,849.52
2023-03-12T10:18:06.274Z,849.48
2023-03-12T10:19:06.081Z,849.47
2023-03-12T10:20:06.003Z,849.46
2023-03-12T10:21:05.989Z,849.51
2023-03-12T10:22:06.023Z,849.55
2023-03-12T10:23:05.971Z,849.52
2023-03-12T10:24:05.957Z,849.50
2023-03-12T10:25:05.950Z,849.55
2023-03-12T10:26:05.942Z,849.50
2023-03-12T10:27:05.966Z,849.50
2023-03-12T10:28:05.937Z,849.50
2023-03-12T10:29:05.901Z,849.46
2023-03-12T10:30:05.889Z,849.53
2023-03-12T10:31:05.960Z,849.53
2023-03-12T10:32:05.878Z,849.51
2023-03-12T10:33:05.856Z,849.54
2023-03-12T10:34:05.859Z,849.57
2023-03-12T10:35:05.836Z,849.60
2023-03-12T10:36:05.868Z,849.58
2023-03-12T10:37:05.836Z,849.65
2023-03-12T10:38:05.816Z,849.70
2023-03-12T10:39:05.834Z,849.70
2023-03-12T10:40:05.780Z,849.69
2023-03-12T10:41:05.769Z,849.73
2023-03-12T10:42:05.764Z,849.72
2023-03-12T10:43:05.786Z,849.74
2023-03-12T10:44:05.737Z,849.79
2023-03-12T10:45:05.750Z,849.72
2023-03-12T10:46:05.770Z,849.76
2023-03-12T10:47:05.722Z,849.80
2023-03-12T10:48:05.688Z,849.79
2023-03-12T10:49:05.693Z,849.82
2023-03-12T10:50:05.666Z,849.82
2023-03-12T10:51:05.699Z,849.86
2023-03-12T10:52:05.653Z,849.92
2023-03-12T10:53:05.688Z,849.91
2023-03-12T10:54:05.632Z,849.94
2023-03-12T10:55:05.616Z,849.94
2023-03-12T10:56:05.618Z,849.95
2023-03-12T10:57:05.650Z,849.95
2023-03-12T10:58:05.579Z,850.03
2023-03-12T10:59:05.597Z,850.11
2023-03-12T11:00:05.558Z,850.13
2023-03-12T11:01:05.551Z,850.13
2023-03-12T11:02:05.574Z,850.14
2023-03-12T11:03:05.546Z,850.14
2023-03-12T11:04:05.514Z,850.20
2023-03-12T11:05:05.508Z,850.19
2023-03-12T11:06:05.523Z,850.19
2023-03-12T11:07:05.483Z,850.20
2023-03-12T11:08:05.478Z,850.19
2023-03-12T11:09:16.119Z,850.22
2023-03-12T11:10:06.464Z,850.18
2023-03-12T11:11:05.440Z,850.20
2023-03-12T11:12:05.438Z,850.25
2023-03-12T11:13:05.420Z,850.26
2023-03-12T11:14:05.403Z,850.23
2023-03-12T11:15:05.431Z,850.28
2023-03-12T11:16:05.444Z,850.17
2023-03-12T11:17:05.386Z,850.16
2023-03-12T11:18:05.374Z,850.11
2023-03-12T11:19:05.375Z,850.12
2023-03-12T11:20:05.338Z,850.07
2023-03-12T11:21:05.417Z,850.02
2023-03-12T11:22:05.335Z,849.99
2023-03-12T11:23:05.309Z,850.01
2023-03-12T11:24:05.296Z,850.01
2023-03-12T11:25:05.287Z,850.02
2023-03-12T11:26:05.281Z,850.04
2023-03-12T11:27:05.284Z,850.06
2023-03-12T11:28:05.282Z,850.02
2023-03-12T11:29:05.258Z,850.03
2023-03-12T11:30:05.279Z,850.09
2023-03-12T11:31:05.294Z,850.09
2023-03-12T11:32:05.302Z,850.09
2023-03-12T11:33:05.256Z,850.08
2023-03-12T11:34:05.182Z,850.11
2023-03-12T11:35:05.207Z,850.13
2023-03-12T11:36:05.162Z,850.09
2023-03-12T11:37:05.155Z,850.12
2023-03-12T11:38:05.152Z,850.05
2023-03-12T11:39:05.158Z,850.06
2023-03-12T11:40:05.123Z,850.09
2023-03-12T11:41:05.128Z,850.04
2023-03-12T11:42:05.105Z,850.05
2023-03-12T11:43:05.085Z,850.09
2023-03-12T11:44:05.072Z,850.10
2023-03-12T11:45:05.095Z,850.11
2023-03-12T11:46:05.052Z,850.14
2023-03-12T11:47:05.074Z,850.04
2023-03-12T11:48:05.031Z,850.02
2023-03-12T11:49:05.022Z,850.04
2023-03-12T11:50:05.009Z,850.10
2023-03-12T11:51:05.032Z,850.12
2023-03-12T11:52:05.006Z,850.11
2023-03-12T11:53:04.981Z,850.10
2023-03-12T11:54:04.967Z,850.09
2023-03-12T11:55:04.959Z,850.09
2023-03-12T11:56:04.945Z,850.14
2023-03-12T11:57:04.962Z,850.12
2023-03-12T11:58:04.936Z,850.11
2023-03-12T11:59:04.914Z,850.13
2023-03-12T12:00:04.937Z,850.11
2023-03-12T12:01:04.893Z,850.07
2023-03-12T12:02:05.049Z,850.06
2023-03-12T12:03:04.947Z,850.00
2023-03-12T12:04:04.877Z,850.04
2023-03-12T12:05:04.848Z,849.99
2023-03-12T12:06:04.841Z,850.03
2023-03-12T12:07:04.891Z,850.03
2023-03-12T12:08:04.812Z,850.06
2023-03-12T12:09:04.856Z,850.01
2023-03-12T12:10:04.792Z,850.01
2023-03-12T12:11:04.785Z,850.01
2023-03-12T12:12:05.758Z,850.04
2023-03-12T12:13:04.769Z,850.06
2023-03-12T12:14:04.756Z,850.02
2023-03-12T12:15:04.793Z,849.99
2023-03-12T12:16:04.744Z,849.96
2023-03-12T12:17:04.719Z,850.03
2023-03-12T12:18:04.744Z,849.95
2023-03-12T12:19:04.754Z,850.07
2023-03-12T12:20:04.684Z,849.98
2023-03-12T12:21:04.709Z,850.08
2023-03-12T12:22:04.670Z,850.01
2023-03-12T12:23:04.651Z,850.08
2023-03-12T12:24:04.658Z,850.07
2023-03-12T12:25:04.633Z,850.05
2023-03-12T12:26:04.615Z,850.13
2023-03-12T12:27:04.656Z,850.15
2023-03-12T12:28:04.599Z,850.14
2023-03-12T12:29:04.587Z,850.15